Time;durP1;ratioP1;P1;durP2;ratioP2;P2;SDS_P1;SDS_P2;PMS_P1;PMS_P2;Temp;Humidity;BMP_temperature;BMP_pressure;BME280_temperature;BME280_humidity;BME280_pressure;Samples;Min_cycle;Max_cycle;Signal;HPM_P1;HPM_P2
2023/10/15 00:00:23;;;;;;;1999.90;999.90;;;9.30;99.90;;;;;;5102884;28;20430;-75
2023/10/15 00:02:51;;;;;;;1999.90;999.90;;;9.20;99.90;;;;;;5108889;28;20944;-75
2023/10/15 00:05:20;;;;;;;1999.90;999.90;;;9.20;99.90;;;;;;5093356;28;20438;-75
2023/10/15 00:07:48;;;;;;;1999.90;999.90;;;9.20;99.90;;;;;;5097195;28;20437;-72
2023/10/15 00:10:16;;;;;;;1999.90;999.90;;;9.20;99.90;;;;;;5098719;28;20482;-72
2023/10/15 00:12:44;;;;;;;1999.90;999.90;;;9.30;99.90;;;;;;5098755;28;20429;-73
2023/10/15 00:15:15;;;;;;;1999.90;999.90;;;9.20;99.90;;;;;;5095663;28;20915;-72
2023/10/15 00:17:43;;;;;;;1999.90;999.90;;;9.20;99.90;;;;;;5099864;28;20426;-72
2023/10/15 00:20:14;;;;;;;1999.90;999.90;;;9.30;99.90;;;;;;5093325;28;20479;-73
2023/10/15 00:22:42;;;;;;;1999.90;999.90;;;9.20;99.90;;;;;;5108938;28;20435;-72
2023/10/15 00:25:12;;;;;;;1999.90;999.90;;;9.40;99.90;;;;;;5104181;28;20430;-73
2023/10/15 00:27:39;;;;;;;1999.90;999.90;;;9.20;99.90;;;;;;5090498;28;20430;-72
2023/10/15 00:30:12;;;;;;;1999.90;999.90;;;9.10;99.90;;;;;;5089728;28;20418;-73
2023/10/15 00:32:43;;;;;;;1999.90;999.90;;;9.10;99.90;;;;;;5095198;28;20430;-72
2023/10/15 00:35:09;;;;;;;1999.90;999.90;;;9.10;99.90;;;;;;5100594;28;20428;-72
2023/10/15 00:37:40;;;;;;;1999.90;999.90;;;9.10;99.90;;;;;;5102068;28;20432;-72
2023/10/15 00:40:16;;;;;;;1999.90;999.90;;;9.10;99.90;;;;;;5108870;28;20477;-73
2023/10/15 00:42:44;;;;;;;1999.90;999.90;;;9.00;99.90;;;;;;5104537;28;21017;-72
2023/10/15 00:45:11;;;;;;;1999.90;999.90;;;9.10;99.90;;;;;;5111762;28;20960;-72
2023/10/15 00:47:39;;;;;;;1999.90;999.90;;;9.10;99.90;;;;;;5118911;28;20431;-73
2023/10/15 00:50:09;;;;;;;1999.90;999.90;;;9.10;99.90;;;;;;5124712;28;20422;-73
2023/10/15 00:52:38;;;;;;;1999.90;999.90;;;9.10;99.90;;;;;;5112370;28;20485;-73
2023/10/15 00:55:06;;;;;;;1999.90;999.90;;;9.10;99.90;;;;;;5122472;28;20455;-73
2023/10/15 00:57:41;;;;;;;1999.90;999.90;;;9.10;99.90;;;;;;5108600;28;20431;-73
2023/10/15 01:00:36;;;;;;;1999.90;999.90;;;9.10;99.90;;;;;;5106791;28;20433;-72
2023/10/15 01:03:03;;;;;;;1999.90;999.90;;;9.10;99.90;;;;;;5097767;28;20419;-73
2023/10/15 01:05:33;;;;;;;1999.90;999.90;;;9.10;99.90;;;;;;5098662;28;20435;-72
2023/10/15 01:08:03;;;;;;;1999.90;999.90;;;9.10;99.90;;;;;;5106348;28;20435;-73
2023/10/15 01:10:36;;;;;;;1999.90;999.90;;;9.00;99.90;;;;;;5109445;28;20431;-73
2023/10/15 01:13:12;;;;;;;1999.90;999.90;;;9.00;99.90;;;;;;5102623;28;20433;-73
2023/10/15 01:15:42;;;;;;;1999.90;999.90;;;8.90;99.90;;;;;;5104952;28;20798;-72
2023/10/15 01:18:10;;;;;;;1999.90;999.90;;;8.80;99.90;;;;;;5097518;28;20515;-72
2023/10/15 01:20:41;;;;;;;1999.90;999.90;;;8.60;99.90;;;;;;5104303;28;20424;-73
2023/10/15 01:23:07;;;;;;;1999.90;999.90;;;9.00;99.90;;;;;;5109394;28;20424;-72
2023/10/15 01:25:45;;;;;;;1999.90;999.90;;;8.60;99.90;;;;;;5099687;28;20434;-72
2023/10/15 01:28:12;;;;;;;1999.90;999.90;;;8.70;99.90;;;;;;5101840;28;20420;-73
2023/10/15 01:30:41;;;;;;;1999.90;999.90;;;9.00;99.90;;;;;;5101089;28;20430;-72
2023/10/15 01:33:10;;;;;;;1999.90;999.90;;;8.70;99.90;;;;;;5108181;28;20431;-72
2023/10/15 01:35:38;;;;;;;1999.90;999.90;;;8.60;99.90;;;;;;5108402;28;20427;-73
2023/10/15 01:38:10;;;;;;;1999.90;999.90;;;8.60;99.90;;;;;;5105600;28;20861;-73
2023/10/15 01:40:40;;;;;;;1999.90;999.90;;;8.60;99.90;;;;;;5101800;28;20426;-73
2023/10/15 01:43:12;;;;;;;1999.90;999.90;;;8.60;99.90;;;;;;5108678;28;20992;-72
2023/10/15 01:45:41;;;;;;;1999.90;999.90;;;8.60;99.90;;;;;;5108016;28;20952;-73
2023/10/15 01:48:16;;;;;;;1999.90;999.90;;;8.50;99.90;;;;;;5106475;28;20912;-72
2023/10/15 01:50:46;;;;;;;1999.90;999.90;;;8.60;99.90;;;;;;5101849;28;20464;-73
2023/10/15 01:53:13;;;;;;;1999.90;999.90;;;8.60;99.90;;;;;;5101824;28;20913;-73
2023/10/15 01:55:53;;;;;;;1999.90;999.90;;;8.60;99.90;;;;;;5104520;28;20423;-73
2023/10/15 01:58:24;;;;;;;1999.90;999.90;;;8.80;99.90;;;;;;5102425;28;20485;-73
2023/10/15 02:00:51;;;;;;;1999.90;999.90;;;8.60;99.90;;;;;;5107319;28;20428;-72
2023/10/15 02:03:18;;;;;;;1999.90;999.90;;;8.70;99.90;;;;;;5103785;28;20432;-73
2023/10/15 02:05:45;;;;;;;1999.90;999.90;;;8.60;99.90;;;;;;5107841;28;20440;-73
2023/10/15 02:08:14;;;;;;;1999.90;999.90;;;8.60;99.90;;;;;;5103627;28;20511;-73
2023/10/15 02:10:46;;;;;;;1999.90;999.90;;;8.60;99.90;;;;;;5104812;28;20426;-72
2023/10/15 02:13:15;;;;;;;1999.90;999.90;;;8.50;99.90;;;;;;5105419;28;21520;-73
2023/10/15 02:15:42;;;;;;;1999.90;999.90;;;8.70;99.90;;;;;;5106635;28;20809;-73
2023/10/15 02:18:13;;;;;;;1999.90;999.90;;;8.50;99.90;;;;;;5109101;28;20431;-72
2023/10/15 02:20:44;;;;;;;1999.90;999.90;;;8.60;99.90;;;;;;5108752;28;20435;-73
2023/10/15 02:23:12;;;;;;;1999.90;999.90;;;8.60;99.90;;;;;;5093942;28;20428;-73
2023/10/15 02:25:45;;;;;;;1999.90;999.90;;;8.60;99.90;;;;;;5102480;28;20790;-73
2023/10/15 02:28:16;;;;;;;1999.90;999.90;;;8.60;99.90;;;;;;5104886;28;20423;-73
2023/10/15 02:30:46;;;;;;;1999.90;999.90;;;8.70;99.90;;;;;;5106433;28;20428;-73
2023/10/15 02:33:16;;;;;;;1999.90;999.90;;;8.40;99.90;;;;;;5105990;28;20416;-73
2023/10/15 02:35:45;;;;;;;1999.90;999.90;;;8.40;99.90;;;;;;5104097;28;20949;-72
2023/10/15 02:38:13;;;;;;;1999.90;999.90;;;8.40;99.90;;;;;;5106198;28;20432;-72
2023/10/15 02:43:24;;;;;;;1999.90;999.90;;;8.40;99.90;;;;;;5104754;28;20416;-73
2023/10/15 02:45:50;;;;;;;1999.90;999.90;;;8.40;99.90;;;;;;5111198;28;20453;-73
2023/10/15 02:48:20;;;;;;;1999.90;999.90;;;8.30;99.90;;;;;;5106243;28;20439;-73
2023/10/15 02:50:59;;;;;;;1999.90;999.90;;;8.60;99.90;;;;;;5107021;28;20970;-73
2023/10/15 02:53:28;;;;;;;1999.90;999.90;;;8.30;99.90;;;;;;5107324;28;20451;-72
2023/10/15 02:55:58;;;;;;;1999.90;999.90;;;8.20;99.90;;;;;;5109292;28;20442;-73
2023/10/15 02:58:28;;;;;;;1999.90;999.90;;;8.10;99.90;;;;;;5104432;28;20438;-73
2023/10/15 03:00:59;;;;;;;1999.90;999.90;;;8.10;99.90;;;;;;5104945;28;20433;-73
2023/10/15 03:03:33;;;;;;;1999.90;999.90;;;8.20;99.90;;;;;;5111767;28;20515;-73
2023/10/15 03:06:00;;;;;;;1999.90;999.90;;;8.20;99.90;;;;;;5107648;28;20540;-73
2023/10/15 03:08:32;;;;;;;1999.90;999.90;;;8.20;99.90;;;;;;5101218;28;20436;-73
2023/10/15 03:11:07;;;;;;;1999.90;999.90;;;8.10;99.90;;;;;;5108160;28;20420;-73
2023/10/15 03:13:44;;;;;;;1999.90;999.90;;;8.20;99.90;;;;;;5107204;28;20424;-73
2023/10/15 03:16:11;;;;;;;1999.90;999.90;;;8.20;99.90;;;;;;5110354;28;20425;-73
2023/10/15 03:18:38;;;;;;;1999.90;999.90;;;8.30;99.90;;;;;;5107663;28;20424;-73
2023/10/15 03:21:14;;;;;;;1999.90;999.90;;;8.30;99.90;;;;;;5107118;28;20427;-73
2023/10/15 03:23:42;;;;;;;1999.90;999.90;;;8.60;99.90;;;;;;5105842;28;20525;-73
2023/10/15 03:26:10;;;;;;;1999.90;999.90;;;8.40;99.90;;;;;;5101604;28;20428;-72
2023/10/15 03:28:44;;;;;;;1999.90;999.90;;;8.50;99.90;;;;;;5110483;28;20424;-73
2023/10/15 03:31:14;;;;;;;1999.90;999.90;;;8.50;99.90;;;;;;5100179;28;20427;-72
2023/10/15 03:33:58;;;;;;;1999.90;999.90;;;8.40;99.90;;;;;;5105236;28;20420;-73
2023/10/15 03:36:26;;;;;;;1999.90;999.90;;;8.40;99.90;;;;;;5105690;28;20432;-73
2023/10/15 03:38:54;;;;;;;1999.90;999.90;;;8.40;99.90;;;;;;5107092;28;20817;-74
2023/10/15 03:41:26;;;;;;;1999.90;999.90;;;8.40;99.90;;;;;;5111256;28;20424;-73
2023/10/15 03:44:04;;;;;;;1999.90;999.90;;;8.40;99.90;;;;;;5108396;28;20509;-73
2023/10/15 03:46:34;;;;;;;1999.90;999.90;;;8.30;99.90;;;;;;5109120;28;20767;-73
2023/10/15 03:49:04;;;;;;;1999.90;999.90;;;8.30;99.90;;;;;;5105254;28;20459;-73
2023/10/15 03:51:31;;;;;;;1999.90;999.90;;;8.20;99.90;;;;;;5105875;28;20452;-73
2023/10/15 03:54:06;;;;;;;1999.90;999.90;;;8.20;99.90;;;;;;5109404;28;20450;-73
2023/10/15 03:56:34;;;;;;;1999.90;999.90;;;8.20;99.90;;;;;;5109297;28;20440;-75
2023/10/15 03:59:03;;;;;;;1999.90;999.90;;;8.20;99.90;;;;;;5108463;28;20440;-74
2023/10/15 04:01:30;;;;;;;1999.90;999.90;;;8.20;99.90;;;;;;5108106;28;20432;-73
2023/10/15 04:04:01;;;;;;;1999.90;999.90;;;8.30;99.90;;;;;;5100738;28;20459;-72
2023/10/15 04:06:27;;;;;;;1999.90;999.90;;;8.30;99.90;;;;;;5099663;28;20431;-73
2023/10/15 04:09:09;;;;;;;1999.90;999.90;;;8.30;99.90;;;;;;5109671;28;20430;-73
2023/10/15 04:11:43;;;;;;;1999.90;999.90;;;8.30;99.90;;;;;;5104782;28;20869;-73
2023/10/15 04:14:17;;;;;;;1999.90;999.90;;;8.40;99.90;;;;;;5104785;28;20454;-73
2023/10/15 04:16:44;;;;;;;1999.90;999.90;;;8.30;99.90;;;;;;5107545;28;20998;-73
2023/10/15 04:19:11;;;;;;;1999.90;999.90;;;8.30;99.90;;;;;;5108016;28;20453;-73
2023/10/15 04:21:39;;;;;;;1999.90;999.90;;;8.30;99.90;;;;;;5106075;28;20922;-73
2023/10/15 04:24:07;;;;;;;1999.90;999.90;;;8.30;99.90;;;;;;5102909;28;21099;-73
2023/10/15 04:26:40;;;;;;;1999.90;999.90;;;8.70;99.90;;;;;;5101968;28;20416;-73
2023/10/15 04:29:16;;;;;;;1999.90;999.90;;;8.40;99.90;;;;;;5104647;28;20442;-73
2023/10/15 04:31:57;;;;;;;1999.90;999.90;;;8.50;99.90;;;;;;5109152;28;20420;-73
2023/10/15 04:34:25;;;;;;;1999.90;999.90;;;8.70;99.90;;;;;;5104138;28;20477;-72
2023/10/15 04:36:54;;;;;;;1999.90;999.90;;;8.50;99.90;;;;;;5106620;28;20436;-73
2023/10/15 04:39:22;;;;;;;1999.90;999.90;;;8.60;99.90;;;;;;5108904;28;20428;-73
2023/10/15 04:41:50;;;;;;;1999.90;999.90;;;8.60;99.90;;;;;;5106660;28;20455;-73
2023/10/15 04:44:25;;;;;;;1999.90;999.90;;;8.70;99.90;;;;;;5105087;28;20903;-73
2023/10/15 04:46:54;;;;;;;1999.90;999.90;;;8.70;99.90;;;;;;5104287;28;20507;-73
2023/10/15 04:49:22;;;;;;;1999.90;999.90;;;8.70;99.90;;;;;;5099789;28;20559;-73
2023/10/15 04:51:52;;;;;;;1999.90;999.90;;;8.70;99.90;;;;;;5103397;28;20420;-73
2023/10/15 04:54:23;;;;;;;1999.90;999.90;;;9.10;99.90;;;;;;5107491;28;20791;-73
2023/10/15 04:56:50;;;;;;;1999.90;999.90;;;9.00;99.90;;;;;;5107608;28;20473;-74
2023/10/15 04:59:17;;;;;;;1999.90;999.90;;;8.60;99.90;;;;;;5108796;28;20428;-73
2023/10/15 05:01:45;;;;;;;1999.90;999.90;;;8.70;99.90;;;;;;5103243;28;20795;-73
2023/10/15 05:04:14;;;;;;;1999.90;999.90;;;8.60;99.90;;;;;;5107519;28;20475;-73
2023/10/15 05:06:41;;;;;;;1999.90;999.90;;;9.10;99.90;;;;;;5109526;28;20420;-74
2023/10/15 05:09:09;;;;;;;1999.90;999.90;;;8.60;99.90;;;;;;5096078;28;20425;-71
2023/10/15 05:11:35;;;;;;;1999.90;999.90;;;8.60;99.90;;;;;;5109171;28;20427;-73
2023/10/15 05:14:02;;;;;;;1999.90;999.90;;;8.60;99.90;;;;;;5106652;28;20434;-73
2023/10/15 05:16:31;;;;;;;1999.90;999.90;;;8.60;99.90;;;;;;5106953;28;20434;-73
2023/10/15 05:18:58;;;;;;;1999.90;999.90;;;8.70;99.90;;;;;;5103209;28;20428;-75
2023/10/15 05:21:29;;;;;;;1999.90;999.90;;;8.50;99.90;;;;;;5102476;28;20533;-73
2023/10/15 05:23:56;;;;;;;1999.90;999.90;;;8.50;99.90;;;;;;5102291;28;20447;-73
2023/10/15 05:26:23;;;;;;;1999.90;999.90;;;8.40;99.90;;;;;;5109383;28;20810;-73
2023/10/15 05:28:50;;;;;;;1999.90;999.90;;;8.50;99.90;;;;;;5106888;28;20464;-73
2023/10/15 05:31:16;;;;;;;1999.90;999.90;;;8.50;99.90;;;;;;5102845;28;20430;-73
2023/10/15 05:33:43;;;;;;;1999.90;999.90;;;8.40;99.90;;;;;;5103620;28;20431;-73
2023/10/15 05:36:10;;;;;;;1999.90;999.90;;;8.50;99.90;;;;;;5108262;28;20512;-73
2023/10/15 05:38:38;;;;;;;1999.90;999.90;;;8.40;99.90;;;;;;5106816;28;20424;-73
2023/10/15 05:41:05;;;;;;;1999.90;999.90;;;8.30;99.90;;;;;;5119715;28;20439;-74
2023/10/15 05:43:31;;;;;;;1999.90;999.90;;;8.30;99.90;;;;;;5126247;28;20420;-74
2023/10/15 05:45:58;;;;;;;1999.90;999.90;;;8.30;99.90;;;;;;5124626;28;20422;-75
2023/10/15 05:48:25;;;;;;;1999.90;999.90;;;8.20;99.90;;;;;;5109857;28;20424;-77
2023/10/15 05:50:52;;;;;;;1999.90;999.90;;;8.20;99.90;;;;;;5106285;28;20420;-73
2023/10/15 05:53:18;;;;;;;1999.90;999.90;;;8.10;99.90;;;;;;5105339;28;20426;-73
2023/10/15 05:55:46;;;;;;;1999.90;999.90;;;8.20;99.90;;;;;;5102715;28;20914;-74
2023/10/15 05:58:13;;;;;;;1999.90;999.90;;;8.30;99.90;;;;;;5100530;28;20979;-73
2023/10/15 06:00:40;;;;;;;1999.90;999.90;;;8.30;99.90;;;;;;5102241;28;20937;-73
2023/10/15 06:03:08;;;;;;;1999.90;999.90;;;8.30;99.90;;;;;;5102132;28;20968;-73
2023/10/15 06:05:35;;;;;;;1999.90;999.90;;;8.30;99.90;;;;;;5094719;28;20457;-73
2023/10/15 06:08:02;;;;;;;1999.90;999.90;;;8.30;99.90;;;;;;5090698;28;20943;-74
2023/10/15 06:10:32;;;;;;;1999.90;999.90;;;8.30;99.90;;;;;;5091754;28;20418;-74
2023/10/15 06:13:01;;;;;;;1999.90;999.90;;;8.40;99.90;;;;;;5103270;28;20430;-73
2023/10/15 06:15:28;;;;;;;1999.90;999.90;;;8.30;99.90;;;;;;5097020;28;20446;-75
2023/10/15 06:17:55;;;;;;;1999.90;999.90;;;8.30;99.90;;;;;;5101893;27;20428;-75
2023/10/15 06:20:23;;;;;;;1999.90;999.90;;;8.70;99.90;;;;;;5106301;28;20541;-74
2023/10/15 06:22:55;;;;;;;1999.90;999.90;;;8.30;99.90;;;;;;5104338;28;20428;-74
2023/10/15 06:25:23;;;;;;;1999.90;999.90;;;8.30;99.90;;;;;;5103033;28;20933;-74
2023/10/15 06:27:51;;;;;;;1999.90;999.90;;;8.30;99.90;;;;;;5100765;28;20795;-74
2023/10/15 06:30:19;;;;;;;1999.90;999.90;;;8.30;99.90;;;;;;5102788;27;20433;-74
2023/10/15 06:32:47;;;;;;;1999.90;999.90;;;8.70;99.90;;;;;;5112166;28;20428;-74
2023/10/15 06:35:18;;;;;;;1999.90;999.90;;;8.30;99.90;;;;;;5100885;28;20504;-74
2023/10/15 06:37:45;;;;;;;1999.90;999.90;;;8.40;99.90;;;;;;5110757;28;20427;-74
2023/10/15 06:40:13;;;;;;;1999.90;999.90;;;8.40;99.90;;;;;;5107726;28;20435;-75
2023/10/15 06:42:40;;;;;;;1999.90;999.90;;;8.40;99.90;;;;;;5108543;28;20842;-75
2023/10/15 06:45:08;;;;;;;1999.90;999.90;;;8.50;99.90;;;;;;5101461;28;20429;-74
2023/10/15 06:47:37;;;;;;;1999.90;999.90;;;8.60;99.90;;;;;;5102437;28;20945;-75
2023/10/15 06:50:07;;;;;;;1999.90;999.90;;;8.70;99.90;;;;;;5109226;28;20445;-74
2023/10/15 06:52:38;;;;;;;1999.90;999.90;;;8.90;99.90;;;;;;5107467;28;20429;-73
2023/10/15 06:55:06;;;;;;;1999.90;999.90;;;9.10;99.90;;;;;;5100821;28;20424;-73
2023/10/15 06:57:33;;;;;;;1999.90;999.90;;;9.20;99.90;;;;;;5101877;28;20428;-75
2023/10/15 07:00:00;;;;;;;1999.90;999.90;;;9.10;99.90;;;;;;5101712;28;20844;-74
2023/10/15 07:02:28;;;;;;;1999.90;999.90;;;9.10;99.90;;;;;;5103064;28;20426;-73
2023/10/15 07:04:57;;;;;;;1999.90;999.90;;;9.10;99.90;;;;;;5109248;28;20457;-73
2023/10/15 07:07:24;;;;;;;1999.90;999.90;;;9.30;99.90;;;;;;5105030;27;20520;-74
2023/10/15 07:09:52;;;;;;;1999.90;999.90;;;9.20;99.90;;;;;;5100508;28;20462;-74
2023/10/15 07:12:18;;;;;;;1999.90;999.90;;;9.00;99.90;;;;;;5101895;28;20495;-74
2023/10/15 07:14:45;;;;;;;1999.90;999.90;;;9.00;99.90;;;;;;5105142;28;20429;-73
2023/10/15 07:17:12;;;;;;;1999.90;999.90;;;9.20;99.90;;;;;;5107696;28;20455;-74
2023/10/15 07:19:39;;;;;;;1999.90;999.90;;;9.30;99.90;;;;;;5101452;28;20445;-74
2023/10/15 07:22:07;;;;;;;1999.90;999.90;;;9.40;99.90;;;;;;5109595;28;20432;-74
2023/10/15 07:24:33;;;;;;;1999.90;999.90;;;9.50;99.90;;;;;;5120415;28;20479;-74
2023/10/15 07:27:01;;;;;;;1999.90;999.90;;;9.40;99.90;;;;;;5124071;28;20497;-74
2023/10/15 07:29:29;;;;;;;1999.90;999.90;;;9.20;99.90;;;;;;5117591;28;20450;-75
2023/10/15 07:31:56;;;;;;;1999.90;999.90;;;9.20;99.90;;;;;;5109862;28;20455;-73
2023/10/15 07:34:23;;;;;;;1999.90;999.90;;;9.10;99.90;;;;;;5111344;28;20477;-74
2023/10/15 07:36:55;;;;;;;1999.90;999.90;;;9.20;99.90;;;;;;5107256;28;20427;-74
2023/10/15 07:39:23;;;;;;;1999.90;999.90;;;9.30;99.90;;;;;;5111275;28;20915;-72
2023/10/15 07:41:51;;;;;;;1999.90;999.90;;;9.40;99.90;;;;;;5110070;28;20426;-74
2023/10/15 07:44:18;;;;;;;1999.90;999.90;;;9.60;99.90;;;;;;5107869;28;20490;-73
2023/10/15 07:46:45;;;;;;;1999.90;999.90;;;10.00;99.90;;;;;;5110711;28;20421;-74
2023/10/15 07:49:14;;;;;;;1999.90;999.90;;;9.70;99.90;;;;;;5102129;28;20445;-74
2023/10/15 07:51:40;;;;;;;1999.90;999.90;;;9.60;99.90;;;;;;5108227;28;20535;-74
2023/10/15 07:54:07;;;;;;;1999.90;999.90;;;9.60;99.90;;;;;;5106385;28;20930;-74
2023/10/15 07:56:35;;;;;;;1999.90;999.90;;;9.70;99.90;;;;;;5104372;28;20420;-74
2023/10/15 07:59:04;;;;;;;1999.90;999.90;;;9.70;99.90;;;;;;5108069;28;20420;-73
2023/10/15 08:01:31;;;;;;;1999.90;999.90;;;9.80;99.90;;;;;;5108620;27;20420;-74
2023/10/15 08:03:59;;;;;;;1999.90;999.90;;;9.90;99.90;;;;;;5100763;28;20424;-74
2023/10/15 08:06:25;;;;;;;1999.90;999.90;;;9.90;99.90;;;;;;5109736;28;20415;-74
2023/10/15 08:08:52;;;;;;;1999.90;999.90;;;10.00;99.90;;;;;;5098360;28;20808;-75
2023/10/15 08:11:19;;;;;;;1999.90;999.90;;;10.00;99.90;;;;;;5097291;27;20435;-74
2023/10/15 08:13:47;;;;;;;1999.90;999.90;;;10.10;99.90;;;;;;5104468;28;20431;-74
2023/10/15 08:16:15;;;;;;;1999.90;999.90;;;10.30;99.90;;;;;;5108790;28;20924;-73
2023/10/15 08:18:42;;;;;;;1999.90;999.90;;;10.20;99.90;;;;;;5099996;28;20410;-74
2023/10/15 08:21:11;;;;;;;1999.90;999.90;;;10.20;99.90;;;;;;5099852;28;20426;-74
2023/10/15 08:23:38;;;;;;;1999.90;999.90;;;10.40;99.90;;;;;;5095997;28;20931;-74
2023/10/15 08:26:06;;;;;;;1999.90;999.90;;;10.30;99.90;;;;;;5106425;28;20498;-74
2023/10/15 08:28:33;;;;;;;1999.90;999.90;;;10.40;99.90;;;;;;5096814;28;20414;-72
2023/10/15 08:31:01;;;;;;;1999.90;999.90;;;10.40;99.90;;;;;;5091792;28;20896;-74
2023/10/15 08:33:28;;;;;;;1999.90;999.90;;;10.50;99.90;;;;;;5091806;28;20430;-74
2023/10/15 08:35:55;;;;;;;1999.90;999.90;;;10.70;99.90;;;;;;5099964;28;20412;-73
2023/10/15 08:38:22;;;;;;;1999.90;999.90;;;11.40;99.90;;;;;;5111943;28;20408;-72
2023/10/15 08:40:53;;;;;;;1999.90;999.90;;;11.50;99.90;;;;;;5111796;28;20500;-74
2023/10/15 08:43:24;;;;;;;1999.90;999.90;;;11.30;99.90;;;;;;5112278;28;20431;-74
2023/10/15 08:45:52;;;;;;;1999.90;999.90;;;11.30;99.90;;;;;;5103884;28;20429;-74
2023/10/15 08:48:21;;;;;;;1999.90;999.90;;;11.10;99.90;;;;;;5102930;28;20430;-74
2023/10/15 08:50:53;;;;;;;1999.90;999.90;;;10.90;99.90;;;;;;5091920;28;20891;-74
2023/10/15 08:53:23;;;;;;;1999.90;999.90;;;11.00;99.90;;;;;;5091205;28;20876;-75
2023/10/15 08:55:50;;;;;;;1999.90;999.90;;;11.10;99.90;;;;;;5091257;28;20413;-74
2023/10/15 08:58:18;;;;;;;1999.90;999.90;;;11.40;99.90;;;;;;5092303;28;20429;-74
2023/10/15 09:00:47;;;;;;;1999.90;999.90;;;11.50;99.90;;;;;;5097734;28;20464;-74
2023/10/15 09:03:15;;;;;;;1999.90;999.90;;;11.60;99.90;;;;;;5092919;28;20504;-73
2023/10/15 09:05:43;;;;;;;1999.90;999.90;;;11.50;99.90;;;;;;5103334;28;20419;-74
2023/10/15 09:08:13;;;;;;;1999.90;999.90;;;11.50;99.90;;;;;;5097984;28;20433;-74
2023/10/15 09:10:41;;;;;;;1999.90;999.90;;;11.30;99.90;;;;;;5106027;28;20921;-74
2023/10/15 09:13:14;;;;;;;1999.90;999.90;;;11.70;99.90;;;;;;5095136;28;20501;-74
2023/10/15 09:15:43;;;;;;;1999.90;999.90;;;11.60;99.90;;;;;;5093989;28;20494;-74
2023/10/15 09:18:15;;;;;;;1999.90;999.90;;;11.90;99.90;;;;;;5093519;28;20421;-74
2023/10/15 09:20:45;;;;;;;1999.90;999.90;;;12.20;99.90;;;;;;5105097;28;20853;-74
2023/10/15 09:23:12;;;;;;;1999.90;999.90;;;12.30;99.90;;;;;;5094247;28;20988;-74
2023/10/15 09:25:41;;;;;;;1999.90;999.90;;;12.40;99.90;;;;;;5094108;28;20432;-74
2023/10/15 09:28:08;;;;;;;1999.90;999.90;;;12.10;99.90;;;;;;5105964;28;20424;-74
2023/10/15 09:30:34;;;;;;;1999.90;999.90;;;12.00;99.90;;;;;;5101377;28;20467;-74
2023/10/15 09:33:01;;;;;;;1999.90;999.90;;;12.00;99.90;;;;;;5095642;28;20435;-74
2023/10/15 09:35:29;;;;;;;1999.90;999.90;;;11.90;99.90;;;;;;5107121;28;20432;-74
2023/10/15 09:37:58;;;;;;;1999.90;999.90;;;11.70;99.90;;;;;;5107155;28;20420;-73
2023/10/15 09:40:30;;;;;;;1999.90;999.90;;;11.50;99.90;;;;;;5105868;28;20497;-73
2023/10/15 09:42:59;;;;;;;1999.90;999.90;;;11.50;99.90;;;;;;5100850;28;20428;-73
2023/10/15 09:45:26;;;;;;;1999.90;999.90;;;11.20;99.90;;;;;;5091979;28;20430;-73
2023/10/15 09:47:57;;;;;;;1999.90;999.90;;;11.10;99.90;;;;;;5099644;28;20444;-74
2023/10/15 09:50:27;;;;;;;1999.90;999.90;;;11.00;99.90;;;;;;5105866;28;20832;-74
2023/10/15 09:52:58;;;;;;;1999.90;999.90;;;11.20;99.90;;;;;;5110235;28;20499;-73
2023/10/15 09:55:27;;;;;;;1999.90;999.90;;;11.40;99.90;;;;;;5110912;28;20882;-73
2023/10/15 09:57:56;;;;;;;1999.90;999.90;;;11.60;99.90;;;;;;5110045;28;20408;-73
2023/10/15 10:00:46;;;;;;;1999.90;999.90;;;11.50;99.90;;;;;;5100317;28;20408;-74
2023/10/15 10:03:26;;;;;;;1999.90;999.90;;;11.40;99.90;;;;;;5110823;28;20431;-74
2023/10/15 10:06:09;;;;;;;1999.90;999.90;;;11.50;99.90;;;;;;5111279;28;20463;-74
2023/10/15 10:08:56;;;;;;;1999.90;999.90;;;11.80;99.90;;;;;;5111138;28;20451;-74
2023/10/15 10:11:45;;;;;;;1999.90;999.90;;;11.80;99.90;;;;;;5098632;28;20429;-74
2023/10/15 10:14:29;;;;;;;1999.90;999.90;;;12.00;99.90;;;;;;5090995;28;20839;-74
2023/10/15 10:16:56;;;;;;;1999.90;999.90;;;12.20;99.90;;;;;;5090105;28;20410;-74
2023/10/15 10:19:23;;;;;;;1999.90;999.90;;;12.10;99.90;;;;;;5090225;28;20414;-74
2023/10/15 10:21:49;;;;;;;1999.90;999.90;;;12.60;99.90;;;;;;5089521;28;20414;-74
2023/10/15 10:24:17;;;;;;;1999.90;999.90;;;12.00;99.90;;;;;;5101915;28;20422;-74
2023/10/15 10:26:52;;;;;;;1999.90;999.90;;;11.90;99.90;;;;;;5093170;28;20410;-72
2023/10/15 10:29:19;;;;;;;1999.90;999.90;;;11.70;99.90;;;;;;5090371;28;20866;-73
2023/10/15 10:31:49;;;;;;;1999.90;999.90;;;11.40;99.90;;;;;;5090587;28;20410;-74
2023/10/15 10:34:29;;;;;;;1999.90;999.90;;;11.20;99.90;;;;;;5089811;28;20426;-74
2023/10/15 10:36:56;;;;;;;1999.90;999.90;;;11.10;99.90;;;;;;5101722;28;20420;-74
2023/10/15 10:39:23;;;;;;;1999.90;999.90;;;11.10;99.90;;;;;;5118036;28;20436;-74
2023/10/15 10:41:54;;;;;;;1999.90;999.90;;;11.70;99.90;;;;;;5119512;28;20420;-74
2023/10/15 10:44:39;;;;;;;1999.90;999.90;;;11.30;99.90;;;;;;5126749;28;20392;-74
2023/10/15 10:47:21;;;;;;;1999.90;999.90;;;11.00;99.90;;;;;;5100039;28;20502;-74
2023/10/15 10:49:55;;;;;;;1999.90;999.90;;;10.90;99.90;;;;;;5094425;28;20438;-74
2023/10/15 10:52:29;;;;;;;1999.90;999.90;;;11.10;99.90;;;;;;5101784;28;20424;-74
2023/10/15 10:54:57;;;;;;;1999.90;999.90;;;11.00;99.90;;;;;;5095648;28;20909;-74
2023/10/15 10:57:31;;;;;;;1999.90;999.90;;;11.60;99.90;;;;;;5098017;28;20422;-73
2023/10/15 11:00:01;;;;;;;1999.90;999.90;;;12.00;99.90;;;;;;5097747;28;20437;-74
2023/10/15 11:02:29;;;;;;;1999.90;999.90;;;12.00;99.90;;;;;;5107924;28;20456;-73
2023/10/15 11:04:58;;;;;;;1999.90;999.90;;;12.20;99.90;;;;;;5108997;28;20428;-74
2023/10/15 11:07:36;;;;;;;1999.90;999.90;;;12.50;99.90;;;;;;5099842;28;20486;-74
2023/10/15 11:10:06;;;;;;;1999.90;999.90;;;12.80;99.90;;;;;;5095654;28;20489;-74
2023/10/15 11:12:35;;;;;;;1999.90;999.90;;;12.90;99.90;;;;;;5102065;28;20420;-75
2023/10/15 11:15:07;;;;;;;1999.90;999.90;;;13.00;99.90;;;;;;5092215;28;20447;-74
2023/10/15 11:17:33;;;;;;;1999.90;999.90;;;12.80;99.90;;;;;;5105649;28;20435;-74
2023/10/15 11:20:01;;;;;;;1999.90;999.90;;;12.90;99.90;;;;;;5100676;28;20424;-75
2023/10/15 11:22:28;;;;;;;1999.90;999.90;;;12.70;99.90;;;;;;5102740;28;20424;-74
2023/10/15 11:24:55;;;;;;;1999.90;999.90;;;12.40;99.90;;;;;;5093918;28;20430;-74
2023/10/15 11:27:22;;;;;;;1999.90;999.90;;;12.50;99.90;;;;;;5096059;27;20424;-75
2023/10/15 11:29:51;;;;;;;1999.90;999.90;;;12.80;99.90;;;;;;5095597;27;20883;-75
2023/10/15 11:32:18;;;;;;;1999.90;999.90;;;13.10;99.90;;;;;;5108992;28;20914;-74
2023/10/15 11:34:45;;;;;;;1999.90;999.90;;;13.30;99.90;;;;;;5097479;28;20928;-74
2023/10/15 11:37:16;;;;;;;1999.90;999.90;;;13.40;99.90;;;;;;5107908;28;20447;-72
2023/10/15 11:39:47;;;;;;;1999.90;999.90;;;12.60;99.90;;;;;;5103880;28;20430;-73
2023/10/15 11:42:18;;;;;;;1999.90;999.90;;;11.40;99.90;;;;;;5102150;28;20432;-69
2023/10/15 11:44:46;;;;;;;1999.90;999.90;;;10.40;99.90;;;;;;5107755;28;20486;-71
2023/10/15 11:47:19;;;;;;;1999.90;999.90;;;9.70;99.90;;;;;;5096759;28;20441;-72
2023/10/15 11:49:50;;;;;;;1999.90;999.90;;;9.70;99.90;;;;;;5094712;28;20434;-71
2023/10/15 11:52:18;;;;;;;1999.90;999.90;;;9.60;99.90;;;;;;5096989;28;20421;-71
2023/10/15 11:54:49;;;;;;;1999.90;999.90;;;10.10;99.90;;;;;;5091314;28;21096;-72
2023/10/15 11:57:21;;;;;;;1999.90;999.90;;;10.40;99.90;;;;;;5100752;28;20508;-71
2023/10/15 11:59:49;;;;;;;1999.90;999.90;;;11.20;99.90;;;;;;5101765;27;20449;-72
2023/10/15 12:02:17;;;;;;;1999.90;999.90;;;11.90;99.90;;;;;;5102658;28;20463;-73
2023/10/15 12:04:44;;;;;;;1999.90;999.90;;;12.30;99.90;;;;;;5108511;28;20432;-72
2023/10/15 12:07:16;;;;;;;1999.90;999.90;;;12.60;99.90;;;;;;5109936;28;20435;-72
2023/10/15 12:09:44;;;;;;;1999.90;999.90;;;13.10;99.90;;;;;;5095130;27;20433;-73
2023/10/15 12:12:11;;;;;;;1999.90;999.90;;;14.00;99.90;;;;;;5109229;28;20511;-70
2023/10/15 12:14:38;;;;;;;1999.90;999.90;;;14.10;99.90;;;;;;5104789;28;20421;-72
2023/10/15 12:17:05;;;;;;;1999.90;999.90;;;14.10;99.90;;;;;;5107828;28;20432;-72
2023/10/15 12:19:33;;;;;;;1999.90;999.90;;;14.00;99.90;;;;;;5106099;28;20428;-72